Time;durP1;ratioP1;P1;durP2;ratioP2;P2;SDS_P1;SDS_P2;PMS_P1;PMS_P2;Temp;Humidity;BMP_temperature;BMP_pressure;BME280_temperature;BME280_humidity;BME280_pressure;Samples;Min_cycle;Max_cycle;Signal;HPM_P1;HPM_P2
2023/12/13 00:02:17;;;;;;;5.13;4.72;;;5.70;99.90;;;;;;5104186;28;20206;-78
2023/12/13 00:04:44;;;;;;;5.22;4.82;;;5.70;99.90;;;;;;5104085;28;20225;-77
2023/12/13 00:07:11;;;;;;;5.10;4.70;;;5.80;99.90;;;;;;5101361;28;20246;-78
2023/12/13 00:09:38;;;;;;;5.03;4.55;;;5.80;99.90;;;;;;5107111;28;20224;-78
2023/12/13 00:12:05;;;;;;;4.93;4.53;;;5.80;99.90;;;;;;5103669;28;20672;-79
2023/12/13 00:14:32;;;;;;;5.15;4.72;;;5.80;99.90;;;;;;5103608;28;20228;-78
2023/12/13 00:17:01;;;;;;;5.07;4.68;;;5.80;99.90;;;;;;5103891;27;20213;-77
2023/12/13 00:19:28;;;;;;;4.90;4.50;;;5.80;99.90;;;;;;5102954;28;20225;-78
2023/12/13 00:21:55;;;;;;;4.88;4.47;;;5.80;99.90;;;;;;5105835;28;20201;-78
2023/12/13 00:24:22;;;;;;;5.65;5.15;;;5.80;99.90;;;;;;5106822;28;20208;-78
2023/12/13 00:26:50;;;;;;;6.03;5.53;;;5.80;99.90;;;;;;5104987;28;20205;-77
2023/12/13 00:29:17;;;;;;;5.60;5.10;;;5.80;99.90;;;;;;5105889;27;20201;-77
2023/12/13 00:31:44;;;;;;;5.45;4.95;;;5.70;99.90;;;;;;5104806;28;20201;-78
2023/12/13 00:34:12;;;;;;;5.68;5.25;;;5.70;99.90;;;;;;5105944;27;20224;-78
2023/12/13 00:36:39;;;;;;;5.13;4.72;;;5.60;99.90;;;;;;5104029;27;20302;-77
2023/12/13 00:39:08;;;;;;;5.88;5.35;;;5.70;99.90;;;;;;5106542;27;20233;-77
2023/12/13 00:41:35;;;;;;;5.00;4.60;;;5.60;99.90;;;;;;5104832;28;20763;-78
2023/12/13 00:44:04;;;;;;;5.32;4.90;;;5.60;99.90;;;;;;5112921;27;20197;-77
2023/12/13 00:46:31;;;;;;;5.38;4.97;;;5.60;99.90;;;;;;5109929;27;20261;-79
2023/12/13 00:48:58;;;;;;;5.10;4.70;;;5.60;99.90;;;;;;5105081;28;20200;-78
2023/12/13 00:51:29;;;;;;;5.38;4.88;;;5.60;99.90;;;;;;5100283;28;20644;-77
2023/12/13 00:53:56;;;;;;;5.10;4.70;;;5.60;99.90;;;;;;5101382;28;20270;-78
2023/12/13 00:56:23;;;;;;;4.95;4.55;;;5.60;99.90;;;;;;5104987;28;20221;-78
2023/12/13 00:58:52;;;;;;;4.53;4.20;;;5.60;99.90;;;;;;5101355;28;20243;-79
2023/12/13 01:01:20;;;;;;;4.40;4.10;;;5.70;99.90;;;;;;5100784;27;20219;-78
2023/12/13 01:03:47;;;;;;;4.53;4.22;;;5.70;99.90;;;;;;5106114;28;20291;-80
2023/12/13 01:06:15;;;;;;;5.20;4.80;;;5.60;99.90;;;;;;5105605;28;20240;-77
2023/12/13 01:08:45;;;;;;;5.53;5.13;;;5.60;99.90;;;;;;5105149;28;20250;-78
2023/12/13 01:11:13;;;;;;;4.82;4.43;;;5.60;99.90;;;;;;5104615;27;20217;-78
2023/12/13 01:13:41;;;;;;;5.15;4.75;;;5.60;99.90;;;;;;5103808;28;20212;-78
2023/12/13 01:16:10;;;;;;;4.38;4.07;;;5.60;99.90;;;;;;5105124;28;20228;-78
2023/12/13 01:18:37;;;;;;;4.57;4.28;;;5.60;99.90;;;;;;5101370;28;20654;-78
2023/12/13 01:21:05;;;;;;;4.97;4.57;;;5.60;99.90;;;;;;5106385;28;20593;-77
2023/12/13 01:23:32;;;;;;;5.03;4.70;;;5.70;99.90;;;;;;5105593;28;20193;-77
2023/12/13 01:26:02;;;;;;;5.40;4.90;;;5.70;99.90;;;;;;5103867;27;20606;-78
2023/12/13 01:28:29;;;;;;;4.68;4.38;;;5.60;99.90;;;;;;5107057;28;20205;-78
2023/12/13 01:30:57;;;;;;;5.05;4.65;;;5.70;99.90;;;;;;5105811;28;20221;-77
2023/12/13 01:33:27;;;;;;;5.20;4.70;;;5.60;99.90;;;;;;5108881;27;20537;-78
2023/12/13 01:35:56;;;;;;;5.00;4.60;;;5.60;99.90;;;;;;5102191;28;20225;-79
2023/12/13 01:38:25;;;;;;;4.57;4.28;;;5.60;99.90;;;;;;5102710;28;20229;-79
2023/12/13 01:40:53;;;;;;;5.13;4.47;;;5.60;99.90;;;;;;5104208;28;20297;-76
2023/12/13 01:43:26;;;;;;;4.47;4.18;;;5.60;99.90;;;;;;5113256;28;20564;-79
2023/12/13 01:45:55;;;;;;;4.97;4.57;;;5.60;99.90;;;;;;5107277;27;20217;-79
2023/12/13 01:48:23;;;;;;;5.20;4.88;;;5.60;99.90;;;;;;5104701;28;20198;-78
2023/12/13 01:50:51;;;;;;;5.15;4.75;;;5.60;99.90;;;;;;5102207;28;20216;-77
2023/12/13 01:53:18;;;;;;;4.60;4.28;;;5.60;99.90;;;;;;5108776;28;20193;-77
2023/12/13 01:55:46;;;;;;;4.57;4.18;;;5.60;99.90;;;;;;5101578;27;20319;-78
2023/12/13 01:58:15;;;;;;;5.30;4.90;;;5.60;99.90;;;;;;5107462;28;20229;-79
2023/12/13 02:00:44;;;;;;;5.22;4.75;;;5.50;99.90;;;;;;5099515;27;20308;-78
2023/12/13 02:03:12;;;;;;;5.45;5.05;;;5.50;99.90;;;;;;5104305;27;20228;-78
2023/12/13 02:05:40;;;;;;;5.03;4.63;;;5.40;99.90;;;;;;5103535;28;20232;-78
2023/12/13 02:08:07;;;;;;;5.78;5.28;;;5.40;99.90;;;;;;5099742;28;20200;-77
2023/12/13 02:10:35;;;;;;;5.22;4.82;;;5.40;99.90;;;;;;5103530;28;20240;-77
2023/12/13 02:13:02;;;;;;;5.18;4.80;;;5.40;99.90;;;;;;5105775;28;20615;-77
2023/12/13 02:15:35;;;;;;;5.18;4.78;;;5.40;99.90;;;;;;5104845;28;20217;-78
2023/12/13 02:18:04;;;;;;;4.97;4.65;;;5.40;99.90;;;;;;5097934;28;20714;-78
2023/12/13 02:20:31;;;;;;;5.50;5.10;;;5.40;99.90;;;;;;5104714;27;20308;-78
2023/12/13 02:22:59;;;;;;;5.22;4.72;;;5.40;99.90;;;;;;5105987;28;20549;-78
2023/12/13 02:25:33;;;;;;;5.13;4.72;;;5.40;99.90;;;;;;5100496;27;20224;-77
2023/12/13 02:28:01;;;;;;;5.20;4.80;;;5.30;99.90;;;;;;5102980;27;20693;-78
2023/12/13 02:30:29;;;;;;;5.47;5.07;;;5.30;99.90;;;;;;5096414;28;20217;-78
2023/12/13 02:32:56;;;;;;;5.53;5.05;;;5.40;99.90;;;;;;5098665;27;20225;-78
2023/12/13 02:35:24;;;;;;;5.97;5.47;;;5.40;99.90;;;;;;5103407;28;20221;-77
2023/12/13 02:37:51;;;;;;;5.15;4.40;;;5.40;99.90;;;;;;5104232;28;20210;-78
2023/12/13 02:40:20;;;;;;;5.40;5.00;;;5.30;99.90;;;;;;5103143;28;20730;-78
2023/12/13 02:42:47;;;;;;;5.18;4.78;;;5.40;99.90;;;;;;5101517;28;20215;-78
2023/12/13 02:45:17;;;;;;;5.70;5.20;;;5.30;99.90;;;;;;5102204;27;20213;-77
2023/12/13 02:47:45;;;;;;;5.72;5.22;;;5.30;99.90;;;;;;5103202;28;20227;-77
2023/12/13 02:50:13;;;;;;;5.80;5.25;;;5.20;99.90;;;;;;5109028;27;20212;-77
2023/12/13 02:52:41;;;;;;;4.97;4.57;;;5.30;99.90;;;;;;5104720;28;20184;-78
2023/12/13 02:55:10;;;;;;;5.07;4.68;;;5.20;99.90;;;;;;5102455;28;20221;-77
2023/12/13 02:57:37;;;;;;;5.35;4.95;;;5.20;99.90;;;;;;5102312;27;20225;-77
2023/12/13 03:00:06;;;;;;;4.82;4.43;;;5.20;99.90;;;;;;5101728;28;20296;-78
2023/12/13 03:02:33;;;;;;;4.72;4.32;;;5.30;99.90;;;;;;5101725;28;20216;-76
2023/12/13 03:05:01;;;;;;;5.70;5.30;;;5.30;99.90;;;;;;5102947;28;20223;-78
2023/12/13 03:07:28;;;;;;;4.70;4.40;;;5.40;99.90;;;;;;5107221;27;20232;-78
2023/12/13 03:09:55;;;;;;;5.68;4.90;;;5.40;99.90;;;;;;5103562;28;20674;-77
2023/12/13 03:12:22;;;;;;;5.60;5.10;;;5.30;99.90;;;;;;5104758;28;20215;-78
2023/12/13 03:14:51;;;;;;;5.82;5.32;;;5.20;99.90;;;;;;5101842;28;20308;-78
2023/12/13 03:17:18;;;;;;;4.95;4.55;;;5.20;99.90;;;;;;5102050;28;20208;-78
2023/12/13 03:19:45;;;;;;;5.40;4.93;;;5.10;99.90;;;;;;5101592;28;20236;-78
2023/12/13 03:22:12;;;;;;;5.03;4.63;;;5.10;99.90;;;;;;5103843;28;20208;-78
2023/12/13 03:24:39;;;;;;;5.40;5.00;;;5.20;99.90;;;;;;5104246;27;20267;-78
2023/12/13 03:27:06;;;;;;;4.78;4.43;;;5.20;99.90;;;;;;5101668;28;20200;-78
2023/12/13 03:29:33;;;;;;;5.35;5.00;;;5.20;99.90;;;;;;5102247;28;20237;-78
2023/12/13 03:32:02;;;;;;;5.13;4.68;;;5.20;99.90;;;;;;5100869;28;20233;-77
2023/12/13 03:34:29;;;;;;;5.38;4.97;;;5.30;99.90;;;;;;5106252;28;20225;-78
2023/12/13 03:36:56;;;;;;;5.28;4.90;;;5.20;99.90;;;;;;5104737;28;20243;-78
2023/12/13 03:39:23;;;;;;;5.60;5.10;;;5.20;99.90;;;;;;5102576;28;20198;-79
2023/12/13 03:41:50;;;;;;;5.15;4.75;;;5.20;99.90;;;;;;5108828;28;20204;-78
2023/12/13 03:44:17;;;;;;;5.30;4.82;;;5.20;99.90;;;;;;5104232;28;20228;-78
2023/12/13 03:46:44;;;;;;;5.78;5.28;;;5.30;99.90;;;;;;5108425;28;20189;-78
2023/12/13 03:49:12;;;;;;;4.90;4.50;;;5.20;99.90;;;;;;5112014;28;20221;-78
2023/12/13 03:51:43;;;;;;;5.35;4.95;;;5.30;99.90;;;;;;5110081;28;20737;-78
2023/12/13 03:54:10;;;;;;;5.43;5.00;;;5.40;99.90;;;;;;5104880;28;20616;-77
2023/12/13 03:56:37;;;;;;;5.88;5.38;;;5.40;99.90;;;;;;5105706;28;20205;-79
2023/12/13 03:59:04;;;;;;;5.10;4.80;;;5.40;99.90;;;;;;5100605;28;20200;-78
2023/12/13 04:01:31;;;;;;;5.47;4.97;;;5.40;99.90;;;;;;5102954;28;20217;-78
2023/12/13 04:03:58;;;;;;;5.20;4.80;;;5.40;99.90;;;;;;5104322;28;20205;-78
2023/12/13 04:06:27;;;;;;;5.15;4.75;;;5.40;99.90;;;;;;5101920;28;20224;-77
2023/12/13 04:08:54;;;;;;;5.50;5.10;;;5.40;99.90;;;;;;5101671;28;20586;-78
2023/12/13 04:11:21;;;;;;;5.43;5.03;;;5.40;99.90;;;;;;5103755;28;20215;-77
2023/12/13 04:13:48;;;;;;;5.10;4.70;;;5.50;99.90;;;;;;5098192;28;20208;-78
2023/12/13 04:16:15;;;;;;;4.80;4.50;;;5.50;99.90;;;;;;5099481;28;20233;-77
2023/12/13 04:18:42;;;;;;;5.47;5.07;;;5.50;99.90;;;;;;5106443;28;20872;-78
2023/12/13 04:21:09;;;;;;;4.97;4.60;;;5.60;99.90;;;;;;5107826;27;20221;-79
2023/12/13 04:23:37;;;;;;;5.75;5.35;;;5.60;99.90;;;;;;5105272;28;20208;-77
2023/12/13 04:26:05;;;;;;;5.28;4.88;;;5.60;99.90;;;;;;5103011;28;20217;-78
2023/12/13 04:28:32;;;;;;;6.05;5.55;;;5.60;99.90;;;;;;5101921;28;20208;-78
2023/12/13 04:30:59;;;;;;;6.60;6.10;;;5.60;99.90;;;;;;5099731;28;20220;-78
2023/12/13 04:33:26;;;;;;;6.28;5.78;;;5.50;99.90;;;;;;5103166;28;20287;-78
2023/12/13 04:35:58;;;;;;;6.82;6.22;;;5.50;99.90;;;;;;5100607;28;20213;-78
2023/12/13 04:38:25;;;;;;;6.53;5.93;;;5.50;99.90;;;;;;5101275;28;20201;-78
2023/12/13 04:40:54;;;;;;;7.13;6.53;;;5.40;99.90;;;;;;5097756;28;20221;-77
2023/12/13 04:43:21;;;;;;;6.80;6.22;;;5.40;99.90;;;;;;5099898;28;20193;-77
2023/12/13 04:45:48;;;;;;;6.03;5.53;;;5.30;99.90;;;;;;5096980;28;20704;-77
2023/12/13 04:48:15;;;;;;;6.32;5.85;;;5.20;99.90;;;;;;5102518;28;20196;-78
2023/12/13 04:50:42;;;;;;;6.47;5.97;;;5.10;99.90;;;;;;5106517;28;20216;-78
2023/12/13 04:53:09;;;;;;;6.70;5.85;;;5.10;99.90;;;;;;5106762;28;20205;-78
2023/12/13 04:55:37;;;;;;;6.53;6.03;;;5.00;99.90;;;;;;5098780;28;20227;-78
2023/12/13 04:58:05;;;;;;;6.05;5.57;;;5.00;99.90;;;;;;5106494;28;20204;-77
2023/12/13 05:00:33;;;;;;;6.55;6.05;;;5.00;99.90;;;;;;5101516;28;20322;-78
2023/12/13 05:03:00;;;;;;;8.55;7.75;;;5.00;99.90;;;;;;5099238;28;20208;-77
2023/12/13 05:05:27;;;;;;;6.60;6.05;;;5.10;99.90;;;;;;5104198;28;20217;-78
2023/12/13 05:07:54;;;;;;;5.57;5.10;;;5.00;99.90;;;;;;5102287;28;20201;-78
2023/12/13 05:10:21;;;;;;;6.10;5.60;;;5.10;99.90;;;;;;5104934;28;20713;-78
2023/12/13 05:12:48;;;;;;;5.75;5.32;;;5.10;99.90;;;;;;5101739;28;20193;-80
2023/12/13 05:15:16;;;;;;;6.22;5.72;;;5.00;99.90;;;;;;5101830;28;20737;-78
2023/12/13 05:17:44;;;;;;;6.40;5.90;;;5.00;99.90;;;;;;5102452;28;20559;-77
2023/12/13 05:20:11;;;;;;;7.00;6.50;;;5.00;99.90;;;;;;5098921;27;20216;-79
2023/12/13 05:22:38;;;;;;;6.50;6.00;;;5.00;99.90;;;;;;5103512;28;20209;-77
2023/12/13 05:25:07;;;;;;;7.05;6.45;;;5.00;99.90;;;;;;5103386;28;20217;-77
2023/12/13 05:27:35;;;;;;;6.20;5.70;;;5.10;99.90;;;;;;5102163;28;20203;-78
2023/12/13 05:30:02;;;;;;;6.22;5.82;;;5.10;99.90;;;;;;5098458;27;20217;-78
2023/12/13 05:32:30;;;;;;;6.63;6.13;;;5.20;99.90;;;;;;5099770;28;20297;-79
2023/12/13 05:34:58;;;;;;;5.85;5.35;;;5.20;99.90;;;;;;5100400;28;20233;-77
2023/12/13 05:37:25;;;;;;;5.70;5.30;;;5.20;99.90;;;;;;5102926;28;20204;-78
2023/12/13 05:39:52;;;;;;;5.50;5.10;;;5.30;99.90;;;;;;5099619;28;20221;-78
2023/12/13 05:42:19;;;;;;;5.70;5.30;;;5.40;99.90;;;;;;5103274;28;20209;-77
2023/12/13 05:44:46;;;;;;;5.68;5.28;;;5.40;99.90;;;;;;5099619;28;20217;-79
2023/12/13 05:47:14;;;;;;;4.95;4.60;;;5.40;99.90;;;;;;5100219;28;20217;-77
2023/12/13 05:49:43;;;;;;;5.40;5.00;;;5.40;99.90;;;;;;5102350;28;20213;-78
2023/12/13 05:52:10;;;;;;;5.70;5.20;;;5.50;99.90;;;;;;5103715;28;20197;-78
2023/12/13 05:54:37;;;;;;;6.18;5.68;;;5.40;99.90;;;;;;5105735;28;20232;-79
2023/12/13 05:57:05;;;;;;;6.30;5.80;;;5.40;99.90;;;;;;5103825;27;20282;-79
2023/12/13 05:59:32;;;;;;;13.77;6.47;;;5.30;99.90;;;;;;5106610;27;20227;-78
2023/12/13 06:01:59;;;;;;;6.47;5.97;;;5.20;99.90;;;;;;5100402;28;20295;-77
2023/12/13 06:04:26;;;;;;;5.97;5.57;;;5.10;99.90;;;;;;5104044;28;20224;-77
2023/12/13 06:06:54;;;;;;;5.85;5.35;;;5.00;99.90;;;;;;5102965;27;20197;-77
2023/12/13 06:09:21;;;;;;;6.07;5.57;;;5.00;99.90;;;;;;5098800;28;20735;-78
2023/12/13 06:11:49;;;;;;;6.72;6.22;;;5.10;99.90;;;;;;5100534;28;20221;-77
2023/12/13 06:14:17;;;;;;;6.97;6.47;;;5.10;99.90;;;;;;5102202;28;20304;-78
2023/12/13 06:16:44;;;;;;;5.53;5.13;;;5.10;99.90;;;;;;5100485;27;20216;-78
2023/12/13 06:19:11;;;;;;;5.18;4.78;;;5.10;99.90;;;;;;5096552;28;20196;-78
2023/12/13 06:21:38;;;;;;;5.57;5.18;;;5.10;99.90;;;;;;5097348;28;20201;-78
2023/12/13 06:24:07;;;;;;;6.20;5.70;;;5.00;99.90;;;;;;5101843;27;20216;-78
2023/12/13 06:26:34;;;;;;;6.10;5.38;;;5.00;99.90;;;;;;5096489;27;20213;-78
2023/12/13 06:29:01;;;;;;;6.20;5.70;;;5.00;99.90;;;;;;5096890;27;20850;-79
2023/12/13 06:31:28;;;;;;;5.78;5.38;;;5.00;99.90;;;;;;5096208;27;20220;-78
2023/12/13 06:33:56;;;;;;;6.05;5.55;;;5.00;99.90;;;;;;5103033;27;20200;-78
2023/12/13 06:36:23;;;;;;;6.22;5.72;;;5.00;99.90;;;;;;5101290;28;20305;-78
2023/12/13 06:38:50;;;;;;;6.20;5.70;;;5.00;99.90;;;;;;5098637;28;20197;-78
2023/12/13 06:41:18;;;;;;;6.57;6.07;;;5.00;99.90;;;;;;5102899;28;20210;-78
2023/12/13 06:43:46;;;;;;;9.73;8.82;;;5.00;99.90;;;;;;5099482;27;20197;-79
2023/12/13 06:46:15;;;;;;;7.60;7.00;;;5.00;99.90;;;;;;5100671;28;20217;-78
2023/12/13 06:48:42;;;;;;;7.95;7.28;;;5.00;99.90;;;;;;5102904;28;20196;-78
2023/12/13 06:51:09;;;;;;;7.45;6.80;;;5.00;99.90;;;;;;5100590;27;20907;-77
2023/12/13 06:53:37;;;;;;;7.15;6.55;;;4.90;99.90;;;;;;5105562;28;20209;-77
2023/12/13 06:56:04;;;;;;;7.45;6.85;;;4.90;99.90;;;;;;5099820;27;20244;-78
2023/12/13 06:58:34;;;;;;;7.95;7.25;;;4.90;99.90;;;;;;5100007;27;20208;-77
2023/12/13 07:01:01;;;;;;;8.77;8.05;;;5.40;99.90;;;;;;5101133;27;20624;-77
2023/12/13 07:03:28;;;;;;;12.60;8.68;;;5.80;99.90;;;;;;5096972;28;20192;-78
2023/12/13 07:05:56;;;;;;;8.65;7.85;;;6.20;99.90;;;;;;5095121;28;20220;-78
2023/12/13 07:08:23;;;;;;;8.55;7.38;;;6.30;99.90;;;;;;5098521;28;20615;-78
2023/12/13 07:10:50;;;;;;;7.18;6.55;;;6.20;99.90;;;;;;5097000;28;20579;-78
2023/12/13 07:13:17;;;;;;;6.75;6.25;;;6.10;99.90;;;;;;5100318;28;20212;-78
2023/12/13 07:15:45;;;;;;;6.18;5.68;;;6.00;99.90;;;;;;5098493;28;20223;-78
2023/12/13 07:18:12;;;;;;;5.72;5.32;;;5.80;99.90;;;;;;5100902;28;20223;-78
2023/12/13 07:20:39;;;;;;;5.47;5.07;;;5.70;99.90;;;;;;5100770;28;20237;-77
2023/12/13 07:23:06;;;;;;;6.68;5.45;;;5.70;99.90;;;;;;5095997;27;20241;-79
2023/12/13 07:25:33;;;;;;;5.50;5.10;;;5.60;99.90;;;;;;5101062;27;20220;-78
2023/12/13 07:28:00;;;;;;;6.07;5.68;;;5.60;99.90;;;;;;5099029;28;20991;-77
2023/12/13 07:30:27;;;;;;;6.28;5.88;;;5.60;99.90;;;;;;5098210;28;20216;-77
2023/12/13 07:32:56;;;;;;;6.30;5.80;;;5.60;99.90;;;;;;5096579;28;20196;-77
2023/12/13 07:35:23;;;;;;;5.60;5.20;;;5.60;99.90;;;;;;5102084;28;20231;-77
2023/12/13 07:37:50;;;;;;;5.15;4.75;;;5.60;99.90;;;;;;5095131;28;20283;-77
2023/12/13 07:40:18;;;;;;;5.88;5.47;;;5.60;99.90;;;;;;5094426;28;20968;-76
2023/12/13 07:42:46;;;;;;;5.68;5.28;;;5.60;99.90;;;;;;5092695;28;20411;-77
2023/12/13 07:45:13;;;;;;;5.35;4.97;;;5.60;99.90;;;;;;5089189;28;20228;-77
2023/12/13 07:47:40;;;;;;;5.60;5.20;;;5.60;99.90;;;;;;5098586;28;20197;-78
2023/12/13 07:50:09;;;;;;;4.80;4.50;;;5.60;99.90;;;;;;5096525;28;20257;-78
2023/12/13 07:52:36;;;;;;;4.80;4.50;;;5.60;99.90;;;;;;5100556;28;20197;-78
2023/12/13 07:55:04;;;;;;;4.70;4.40;;;5.60;99.90;;;;;;5100897;28;20217;-77
2023/12/13 07:57:31;;;;;;;4.20;3.97;;;5.60;99.90;;;;;;5095650;28;20216;-79
2023/12/13 07:59:58;;;;;;;4.05;3.75;;;5.70;99.90;;;;;;5096273;28;20229;-78
2023/12/13 08:02:25;;;;;;;4.38;4.07;;;5.70;99.90;;;;;;5103425;28;20539;-78
2023/12/13 08:04:52;;;;;;;4.35;4.05;;;5.70;99.90;;;;;;5096412;28;20224;-77
2023/12/13 08:07:21;;;;;;;6.88;6.28;;;5.70;99.90;;;;;;5104275;28;20204;-77
2023/12/13 08:09:48;;;;;;;6.78;6.20;;;5.60;99.90;;;;;;5099251;27;20615;-78
2023/12/13 08:12:15;;;;;;;5.95;5.53;;;5.50;99.90;;;;;;5102118;27;20204;-76
2023/12/13 08:14:42;;;;;;;7.18;6.47;;;5.50;99.90;;;;;;5099109;28;20243;-77
2023/12/13 08:17:10;;;;;;;7.40;6.70;;;5.50;99.90;;;;;;5096512;28;20221;-77
2023/12/13 08:19:37;;;;;;;8.45;7.82;;;5.40;99.90;;;;;;5100734;28;20813;-79
2023/12/13 08:22:04;;;;;;;23.10;8.13;;;5.30;99.90;;;;;;5094472;28;20217;-76
2023/12/13 08:24:33;;;;;;;7.80;7.10;;;5.20;99.90;;;;;;5098346;28;20315;-77
2023/12/13 08:27:00;;;;;;;7.85;7.18;;;5.00;99.90;;;;;;5105512;27;20203;-77
2023/12/13 08:29:27;;;;;;;7.97;7.38;;;4.90;99.90;;;;;;5108498;27;20197;-77
2023/12/13 08:31:54;;;;;;;7.60;7.00;;;4.90;99.90;;;;;;5105076;27;20201;-78
2023/12/13 08:34:21;;;;;;;8.18;7.47;;;4.90;99.90;;;;;;5100239;27;20259;-78
2023/12/13 08:36:48;;;;;;;8.35;7.70;;;4.80;99.90;;;;;;5102350;27;20221;-76
2023/12/13 08:39:15;;;;;;;7.03;6.45;;;4.80;99.90;;;;;;5101012;28;20718;-77
2023/12/13 08:41:43;;;;;;;6.78;6.28;;;4.80;99.90;;;;;;5102758;27;20200;-77
2023/12/13 08:44:10;;;;;;;7.00;6.50;;;4.80;99.90;;;;;;5098148;27;20338;-78
2023/12/13 08:46:38;;;;;;;6.88;6.28;;;4.90;99.90;;;;;;5101386;28;20506;-76
2023/12/13 08:49:05;;;;;;;6.43;5.95;;;5.00;99.90;;;;;;5102581;28;20677;-77
2023/12/13 08:51:32;;;;;;;6.00;5.55;;;5.10;99.90;;;;;;5104364;28;20216;-78
2023/12/13 08:53:59;;;;;;;6.20;5.70;;;5.20;99.90;;;;;;5101098;28;20200;-77
2023/12/13 08:56:26;;;;;;;6.80;6.28;;;5.20;99.90;;;;;;5105518;28;20686;-77
2023/12/13 08:58:55;;;;;;;6.22;5.72;;;5.30;99.90;;;;;;5104585;28;20205;-76
2023/12/13 09:01:22;;;;;;;6.40;5.80;;;5.30;99.90;;;;;;5097944;28;20209;-78
2023/12/13 09:03:49;;;;;;;5.30;4.90;;;5.30;99.90;;;;;;5107436;28;20225;-77
2023/12/13 09:06:16;;;;;;;5.60;5.30;;;5.40;99.90;;;;;;5103912;28;20217;-76
2023/12/13 09:08:44;;;;;;;5.53;5.13;;;5.40;99.90;;;;;;5109140;27;20207;-78
2023/12/13 09:11:11;;;;;;;6.10;5.70;;;5.40;99.90;;;;;;5097824;28;20225;-77
2023/12/13 09:13:38;;;;;;;5.88;5.43;;;5.50;99.90;;;;;;5100110;28;20201;-77
2023/12/13 09:16:07;;;;;;;6.97;6.47;;;5.50;99.90;;;;;;5104708;28;20232;-77
2023/12/13 09:18:34;;;;;;;7.25;6.65;;;5.50;99.90;;;;;;5108423;27;20593;-79
2023/12/13 09:21:03;;;;;;;5.78;5.38;;;5.50;99.90;;;;;;5099099;27;20878;-77
2023/12/13 09:23:32;;;;;;;5.50;5.13;;;5.40;99.90;;;;;;5105780;27;20208;-76
2023/12/13 09:25:59;;;;;;;6.53;6.10;;;5.40;99.90;;;;;;5099068;28;20228;-76
2023/12/13 09:28:29;;;;;;;6.15;5.72;;;5.30;99.90;;;;;;5100965;27;20564;-76
2023/12/13 09:30:56;;;;;;;6.32;5.82;;;5.20;99.90;;;;;;5097317;28;20251;-77
2023/12/13 09:33:25;;;;;;;6.38;5.93;;;5.10;99.90;;;;;;5099601;27;20281;-78
2023/12/13 09:35:53;;;;;;;5.85;5.45;;;5.10;99.90;;;;;;5097756;28;20714;-77
2023/12/13 09:38:21;;;;;;;6.10;5.70;;;5.10;99.90;;;;;;5101982;27;20773;-79
2023/12/13 09:40:48;;;;;;;5.20;4.80;;;5.10;99.90;;;;;;5099075;27;20269;-76
2023/12/13 09:43:15;;;;;;;5.82;5.43;;;5.10;99.90;;;;;;5103382;27;20218;-77
2023/12/13 09:45:45;;;;;;;6.20;5.70;;;5.10;99.90;;;;;;5104002;27;20225;-78
2023/12/13 09:48:14;;;;;;;6.22;5.80;;;5.10;99.90;;;;;;5103323;28;20614;-78
2023/12/13 09:50:45;;;;;;;5.68;5.28;;;5.10;99.90;;;;;;5102499;28;20706;-78
2023/12/13 09:53:12;;;;;;;6.00;5.60;;;5.10;99.90;;;;;;5103613;27;20193;-78
2023/12/13 09:55:40;;;;;;;5.18;4.88;;;5.10;99.90;;;;;;5100734;28;20621;-77
2023/12/13 09:58:07;;;;;;;5.15;4.82;;;5.20;99.90;;;;;;5099890;28;20209;-77
2023/12/13 10:00:35;;;;;;;5.47;5.07;;;5.30;99.90;;;;;;5096669;28;20245;-77
2023/12/13 10:03:02;;;;;;;4.85;4.55;;;5.40;99.90;;;;;;5099552;28;20201;-77
2023/12/13 10:05:32;;;;;;;5.00;4.60;;;5.50;99.90;;;;;;5099194;28;20228;-79
2023/12/13 10:08:03;;;;;;;5.38;4.97;;;5.50;99.90;;;;;;5097753;28;20204;-78
2023/12/13 10:10:32;;;;;;;4.60;4.30;;;5.50;99.90;;;;;;5098798;28;20224;-77
2023/12/13 10:13:01;;;;;;;5.20;4.75;;;5.60;99.90;;;;;;5096849;28;20209;-76
2023/12/13 10:15:31;;;;;;;6.35;5.65;;;5.60;99.90;;;;;;5099917;28;20225;-78
2023/12/13 10:17:59;;;;;;;5.38;4.97;;;5.60;99.90;;;;;;5099251;28;20244;-78
2023/12/13 10:20:27;;;;;;;5.45;5.05;;;5.60;99.90;;;;;;5102748;27;20626;-77
2023/12/13 10:22:54;;;;;;;5.70;5.32;;;5.50;99.90;;;;;;5099140;28;20204;-76
2023/12/13 10:25:23;;;;;;;5.45;5.05;;;5.50;99.90;;;;;;5104288;27;20581;-79
2023/12/13 10:27:53;;;;;;;4.70;4.40;;;5.50;99.90;;;;;;5102710;27;20382;-76
2023/12/13 10:30:20;;;;;;;5.20;4.80;;;5.50;99.90;;;;;;5101597;28;20291;-77
2023/12/13 10:32:47;;;;;;;5.15;4.85;;;5.50;99.90;;;;;;5101647;28;20283;-76
2023/12/13 10:35:15;;;;;;;4.75;4.45;;;5.60;99.90;;;;;;5105246;27;20217;-78
2023/12/13 10:37:43;;;;;;;5.75;4.53;;;5.60;99.90;;;;;;5102094;28;20216;-76
2023/12/13 10:40:14;;;;;;;5.00;4.50;;;5.60;99.90;;;;;;5099864;28;20225;-77
2023/12/13 10:42:45;;;;;;;4.43;4.13;;;5.70;99.90;;;;;;5097959;28;20211;-78
2023/12/13 10:45:13;;;;;;;4.38;4.13;;;5.80;99.90;;;;;;5102411;27;20220;-76
2023/12/13 10:47:45;;;;;;;4.28;4.05;;;5.80;99.90;;;;;;5107437;28;20529;-78
2023/12/13 10:50:12;;;;;;;4.15;3.95;;;5.80;99.90;;;;;;5105903;28;20212;-78
2023/12/13 10:52:40;;;;;;;4.50;4.20;;;5.90;99.90;;;;;;5106081;28;20608;-77
2023/12/13 10:55:09;;;;;;;4.38;4.07;;;5.90;99.90;;;;;;5101996;28;20248;-79
2023/12/13 10:57:37;;;;;;;4.32;4.07;;;5.90;99.90;;;;;;5104039;28;20239;-77
2023/12/13 11:00:08;;;;;;;4.55;4.25;;;6.00;99.90;;;;;;5096136;28;20249;-77
2023/12/13 11:02:45;;;;;;;4.72;4.40;;;6.00;99.90;;;;;;5104343;28;20196;-78
2023/12/13 11:05:13;;;;;;;5.35;4.97;;;6.00;99.90;;;;;;5100056;28;20224;-76
2023/12/13 11:07:45;;;;;;;5.82;5.43;;;6.10;99.90;;;;;;5105234;28;20654;-79
2023/12/13 11:10:13;;;;;;;8.52;7.85;;;6.10;99.90;;;;;;5098451;28;20209;-77
2023/12/13 11:12:49;;;;;;;8.00;7.40;;;6.00;99.90;;;;;;5100422;28;20629;-77
2023/12/13 11:15:19;;;;;;;7.50;6.90;;;6.00;99.90;;;;;;5102788;27;20248;-78
2023/12/13 11:17:48;;;;;;;7.07;6.50;;;6.10;99.90;;;;;;5102791;28;20255;-77
2023/12/13 11:20:16;;;;;;;6.93;6.43;;;6.10;99.90;;;;;;5101361;28;20911;-77
2023/12/13 11:22:47;;;;;;;7.20;6.55;;;6.00;99.90;;;;;;5102212;28;20193;-77
2023/12/13 11:25:14;;;;;;;6.75;6.25;;;6.10;99.90;;;;;;5099443;28;20295;-76
2023/12/13 11:28:00;;;;;;;6.10;5.60;;;6.10;99.90;;;;;;5103800;28;20201;-77
2023/12/13 11:30:28;;;;;;;6.03;5.63;;;6.20;99.90;;;;;;5094468;28;20221;-77
2023/12/13 11:32:56;;;;;;;6.32;5.85;;;6.20;99.90;;;;;;5102414;28;20860;-76
2023/12/13 11:35:24;;;;;;;6.50;6.00;;;6.20;99.90;;;;;;5098654;28;20220;-78
2023/12/13 11:37:52;;;;;;;6.47;5.97;;;6.20;99.90;;;;;;5104880;28;20219;-77
2023/12/13 11:40:20;;;;;;;5.90;5.28;;;6.30;99.90;;;;;;5100650;28;20231;-76
2023/12/13 11:42:49;;;;;;;6.43;5.93;;;6.30;99.90;;;;;;5100089;28;20204;-78
2023/12/13 11:45:19;;;;;;;6.32;5.85;;;6.20;99.90;;;;;;5101578;28;20252;-78
2023/12/13 11:47:49;;;;;;;6.55;6.05;;;6.20;99.90;;;;;;5111573;28;20207;-78
2023/12/13 11:50:16;;;;;;;7.20;6.60;;;6.20;99.90;;;;;;5104928;28;20216;-79
2023/12/13 11:52:45;;;;;;;5.95;5.53;;;6.20;99.90;;;;;;5102133;28;20201;-79
2023/12/13 11:55:12;;;;;;;5.65;5.25;;;6.10;99.90;;;;;;5106802;28;20757;-77
2023/12/13 11:57:39;;;;;;;5.80;5.40;;;6.10;99.90;;;;;;5100150;28;20235;-76
2023/12/13 12:00:07;;;;;;;6.20;5.57;;;6.00;99.90;;;;;;5104545;28;20212;-76
2023/12/13 12:02:34;;;;;;;6.32;5.82;;;6.00;99.90;;;;;;5105509;28;20201;-76
2023/12/13 12:05:06;;;;;;;6.70;6.20;;;6.10;99.90;;;;;;5105449;28;20231;-79
2023/12/13 12:07:33;;;;;;;6.57;6.07;;;6.10;99.90;;;;;;5109229;27;20189;-77
2023/12/13 12:10:00;;;;;;;5.78;5.38;;;6.10;99.90;;;;;;5107693;28;20617;-80
2023/12/13 12:12:28;;;;;;;6.40;5.90;;;6.00;99.90;;;;;;5109159;27;20204;-77
2023/12/13 12:14:55;;;;;;;5.65;5.15;;;6.00;99.90;;;;;;5106162;27;20216;-78
2023/12/13 12:17:24;;;;;;;5.75;5.25;;;6.00;99.90;;;;;;5102651;27;21129;-76
2023/12/13 12:19:52;;;;;;;5.78;5.38;;;6.00;99.90;;;;;;5102820;28;20223;-79
2023/12/13 12:22:21;;;;;;;5.93;5.47;;;5.90;99.90;;;;;;5111338;28;20208;-77
2023/12/13 12:24:50;;;;;;;5.93;5.43;;;5.90;99.90;;;;;;5109802;28;20743;-77
2023/12/13 12:27:23;;;;;;;6.22;5.72;;;5.80;99.90;;;;;;5106146;28;20195;-76
2023/12/13 12:29:50;;;;;;;6.38;5.88;;;5.80;99.90;;;;;;5111133;27;20244;-78
2023/12/13 12:32:17;;;;;;;6.57;6.07;;;5.80;99.90;;;;;;5109957;28;20661;-76
2023/12/13 12:34:48;;;;;;;6.40;5.80;;;5.80;99.90;;;;;;5110187;27;20219;-77
2023/12/13 12:37:16;;;;;;;6.50;6.00;;;5.80;99.90;;;;;;5111365;27;20277;-77
2023/12/13 12:39:44;;;;;;;6.20;5.70;;;5.90;99.90;;;;;;5105839;28;20753;-77
2023/12/13 12:42:12;;;;;;;6.78;6.28;;;5.90;99.90;;;;;;5106488;27;20217;-77
2023/12/13 12:44:39;;;;;;;6.43;6.03;;;6.00;99.90;;;;;;5107993;27;20232;-78
2023/12/13 12:47:06;;;;;;;6.13;5.72;;;6.00;99.90;;;;;;5106949;27;20197;-77
2023/12/13 12:49:33;;;;;;;6.20;5.80;;;6.00;99.90;;;;;;5112405;28;20227;-78
2023/12/13 12:52:00;;;;;;;6.65;6.10;;;6.00;99.90;;;;;;5109826;28;20730;-77
2023/12/13 12:54:27;;;;;;;7.10;6.40;;;6.00;99.90;;;;;;5108710;27;20224;-77
2023/12/13 12:56:56;;;;;;;6.75;6.25;;;6.10;99.90;;;;;;5102417;28;20193;-77
2023/12/13 12:59:23;;;;;;;6.68;6.18;;;6.10;99.90;;;;;;5104158;27;20228;-78
2023/12/13 13:01:51;;;;;;;7.05;6.45;;;6.10;99.90;;;;;;5114108;27;20239;-77